sensor_id;sensor_type;location;lat;lon;timestamp;P1;durP1;ratioP1;P2;durP2;ratioP2
82938;SDS011;72714;52.744;4.900;2023-12-20T00:02:11;19.83;;;3.47;;
82938;SDS011;72714;52.744;4.900;2023-12-20T00:04:36;24.70;;;3.83;;
82938;SDS011;72714;52.744;4.900;2023-12-20T00:07:02;19.27;;;3.30;;
82938;SDS011;72714;52.744;4.900;2023-12-20T00:09:27;18.23;;;3.70;;
82938;SDS011;72714;52.744;4.900;2023-12-20T00:11:53;23.90;;;4.00;;
82938;SDS011;72714;52.744;4.900;2023-12-20T00:14:18;19.07;;;3.50;;
82938;SDS011;72714;52.744;4.900;2023-12-20T00:16:43;22.43;;;4.00;;
82938;SDS011;72714;52.744;4.900;2023-12-20T00:19:09;20.00;;;4.20;;
82938;SDS011;72714;52.744;4.900;2023-12-20T00:21:34;19.80;;;3.80;;
82938;SDS011;72714;52.744;4.900;2023-12-20T00:24:00;20.30;;;3.57;;
82938;SDS011;72714;52.744;4.900;2023-12-20T00:26:25;24.43;;;4.47;;
82938;SDS011;72714;52.744;4.900;2023-12-20T00:28:53;22.17;;;4.00;;
82938;SDS011;72714;52.744;4.900;2023-12-20T00:31:18;20.97;;;3.93;;
82938;SDS011;72714;52.744;4.900;2023-12-20T00:33:44;19.20;;;3.87;;
82938;SDS011;72714;52.744;4.900;2023-12-20T00:36:11;26.08;;;4.35;;
82938;SDS011;72714;52.744;4.900;2023-12-20T00:38:36;20.60;;;3.75;;
82938;SDS011;72714;52.744;4.900;2023-12-20T00:41:02;25.87;;;4.77;;
82938;SDS011;72714;52.744;4.900;2023-12-20T00:43:27;23.67;;;4.67;;
82938;SDS011;72714;52.744;4.900;2023-12-20T00:45:53;26.63;;;4.37;;
82938;SDS011;72714;52.744;4.900;2023-12-20T00:48:18;24.23;;;4.17;;
82938;SDS011;72714;52.744;4.900;2023-12-20T00:50:44;22.03;;;4.00;;
82938;SDS011;72714;52.744;4.900;2023-12-20T00:53:09;21.97;;;4.17;;
82938;SDS011;72714;52.744;4.900;2023-12-20T00:55:35;22.48;;;4.35;;
82938;SDS011;72714;52.744;4.900;2023-12-20T00:58:00;25.37;;;4.87;;
82938;SDS011;72714;52.744;4.900;2023-12-20T01:00:25;23.90;;;4.43;;
82938;SDS011;72714;52.744;4.900;2023-12-20T01:02:51;20.92;;;4.53;;
82938;SDS011;72714;52.744;4.900;2023-12-20T01:05:17;31.17;;;4.60;;
82938;SDS011;72714;52.744;4.900;2023-12-20T01:07:43;22.70;;;4.43;;
82938;SDS011;72714;52.744;4.900;2023-12-20T01:10:08;27.88;;;4.75;;
82938;SDS011;72714;52.744;4.900;2023-12-20T01:12:35;24.95;;;4.85;;
82938;SDS011;72714;52.744;4.900;2023-12-20T01:15:01;27.30;;;5.53;;
82938;SDS011;72714;52.744;4.900;2023-12-20T01:17:27;24.27;;;4.45;;
82938;SDS011;72714;52.744;4.900;2023-12-20T01:19:52;19.53;;;4.27;;
82938;SDS011;72714;52.744;4.900;2023-12-20T01:22:17;22.80;;;4.60;;
82938;SDS011;72714;52.744;4.900;2023-12-20T01:24:43;27.05;;;4.68;;
82938;SDS011;72714;52.744;4.900;2023-12-20T01:27:09;24.58;;;5.10;;
82938;SDS011;72714;52.744;4.900;2023-12-20T01:29:34;26.80;;;4.50;;
82938;SDS011;72714;52.744;4.900;2023-12-20T01:31:59;25.90;;;5.17;;
82938;SDS011;72714;52.744;4.900;2023-12-20T01:34:25;26.58;;;5.03;;
82938;SDS011;72714;52.744;4.900;2023-12-20T01:36:50;27.63;;;4.70;;
82938;SDS011;72714;52.744;4.900;2023-12-20T01:39:16;27.90;;;4.97;;
82938;SDS011;72714;52.744;4.900;2023-12-20T01:41:42;26.23;;;4.93;;
82938;SDS011;72714;52.744;4.900;2023-12-20T01:44:07;27.80;;;4.73;;
82938;SDS011;72714;52.744;4.900;2023-12-20T01:46:33;27.20;;;4.80;;
82938;SDS011;72714;52.744;4.900;2023-12-20T01:48:58;25.60;;;5.15;;
82938;SDS011;72714;52.744;4.900;2023-12-20T01:51:24;27.47;;;5.30;;
82938;SDS011;72714;52.744;4.900;2023-12-20T01:53:50;26.27;;;4.40;;
82938;SDS011;72714;52.744;4.900;2023-12-20T01:56:15;29.80;;;5.17;;
82938;SDS011;72714;52.744;4.900;2023-12-20T01:58:44;28.17;;;4.70;;
82938;SDS011;72714;52.744;4.900;2023-12-20T02:01:10;27.45;;;4.40;;
82938;SDS011;72714;52.744;4.900;2023-12-20T02:03:36;24.83;;;4.80;;
82938;SDS011;72714;52.744;4.900;2023-12-20T02:06:02;27.33;;;4.73;;
82938;SDS011;72714;52.744;4.900;2023-12-20T02:08:28;24.85;;;4.68;;
82938;SDS011;72714;52.744;4.900;2023-12-20T02:10:54;23.90;;;4.30;;
82938;SDS011;72714;52.744;4.900;2023-12-20T02:13:21;21.52;;;4.50;;
82938;SDS011;72714;52.744;4.900;2023-12-20T02:15:46;21.27;;;4.10;;
82938;SDS011;72714;52.744;4.900;2023-12-20T02:18:12;24.02;;;5.07;;
82938;SDS011;72714;52.744;4.900;2023-12-20T02:20:40;25.80;;;4.75;;
82938;SDS011;72714;52.744;4.900;2023-12-20T02:23:06;22.88;;;4.13;;
82938;SDS011;72714;52.744;4.900;2023-12-20T02:25:31;22.15;;;4.07;;
82938;SDS011;72714;52.744;4.900;2023-12-20T02:27:57;22.80;;;4.60;;
82938;SDS011;72714;52.744;4.900;2023-12-20T02:30:22;21.03;;;4.60;;
82938;SDS011;72714;52.744;4.900;2023-12-20T02:32:49;21.90;;;4.50;;
82938;SDS011;72714;52.744;4.900;2023-12-20T02:35:15;25.15;;;4.85;;
82938;SDS011;72714;52.744;4.900;2023-12-20T02:37:40;27.30;;;4.80;;
82938;SDS011;72714;52.744;4.900;2023-12-20T02:40:06;26.80;;;5.37;;
82938;SDS011;72714;52.744;4.900;2023-12-20T02:42:32;24.42;;;4.70;;
82938;SDS011;72714;52.744;4.900;2023-12-20T02:44:57;27.58;;;5.45;;
82938;SDS011;72714;52.744;4.900;2023-12-20T02:47:22;27.70;;;5.10;;
82938;SDS011;72714;52.744;4.900;2023-12-20T02:49:48;26.60;;;4.90;;
82938;SDS011;72714;52.744;4.900;2023-12-20T02:52:14;30.10;;;5.10;;
82938;SDS011;72714;52.744;4.900;2023-12-20T02:54:39;28.60;;;4.85;;
82938;SDS011;72714;52.744;4.900;2023-12-20T02:57:05;24.30;;;4.10;;
82938;SDS011;72714;52.744;4.900;2023-12-20T02:59:31;31.83;;;5.45;;
82938;SDS011;72714;52.744;4.900;2023-12-20T03:01:56;23.83;;;5.37;;
82938;SDS011;72714;52.744;4.900;2023-12-20T03:04:22;28.27;;;5.20;;
82938;SDS011;72714;52.744;4.900;2023-12-20T03:06:47;26.50;;;4.83;;
82938;SDS011;72714;52.744;4.900;2023-12-20T03:09:12;25.97;;;4.63;;
82938;SDS011;72714;52.744;4.900;2023-12-20T03:11:38;30.13;;;5.07;;
82938;SDS011;72714;52.744;4.900;2023-12-20T03:14:04;28.87;;;5.37;;
82938;SDS011;72714;52.744;4.900;2023-12-20T03:16:29;27.17;;;4.97;;
82938;SDS011;72714;52.744;4.900;2023-12-20T03:18:56;29.73;;;5.50;;
82938;SDS011;72714;52.744;4.900;2023-12-20T03:21:21;26.40;;;5.10;;
82938;SDS011;72714;52.744;4.900;2023-12-20T03:23:47;25.33;;;5.00;;
82938;SDS011;72714;52.744;4.900;2023-12-20T03:26:12;28.25;;;4.82;;
82938;SDS011;72714;52.744;4.900;2023-12-20T03:28:38;21.90;;;4.45;;
82938;SDS011;72714;52.744;4.900;2023-12-20T03:31:04;30.07;;;5.27;;
82938;SDS011;72714;52.744;4.900;2023-12-20T03:33:29;29.23;;;5.20;;
82938;SDS011;72714;52.744;4.900;2023-12-20T03:35:55;25.07;;;4.90;;
82938;SDS011;72714;52.744;4.900;2023-12-20T03:38:20;23.45;;;4.43;;
82938;SDS011;72714;52.744;4.900;2023-12-20T03:40:46;28.40;;;4.85;;
82938;SDS011;72714;52.744;4.900;2023-12-20T03:43:12;28.30;;;5.07;;
82938;SDS011;72714;52.744;4.900;2023-12-20T03:45:37;28.23;;;4.83;;
82938;SDS011;72714;52.744;4.900;2023-12-20T03:48:03;23.70;;;4.57;;
82938;SDS011;72714;52.744;4.900;2023-12-20T03:50:29;24.60;;;4.83;;
82938;SDS011;72714;52.744;4.900;2023-12-20T03:52:54;26.00;;;4.93;;
82938;SDS011;72714;52.744;4.900;2023-12-20T03:55:20;29.50;;;5.30;;
82938;SDS011;72714;52.744;4.900;2023-12-20T03:57:45;33.03;;;6.30;;
82938;SDS011;72714;52.744;4.900;2023-12-20T04:00:11;31.33;;;5.20;;
82938;SDS011;72714;52.744;4.900;2023-12-20T04:02:39;26.17;;;4.80;;
82938;SDS011;72714;52.744;4.900;2023-12-20T04:05:06;29.55;;;4.85;;
82938;SDS011;72714;52.744;4.900;2023-12-20T04:07:32;23.45;;;4.93;;
82938;SDS011;72714;52.744;4.900;2023-12-20T04:09:57;32.33;;;4.80;;
82938;SDS011;72714;52.744;4.900;2023-12-20T04:12:23;21.90;;;4.50;;
82938;SDS011;72714;52.744;4.900;2023-12-20T04:14:48;24.40;;;4.40;;
82938;SDS011;72714;52.744;4.900;2023-12-20T04:17:15;23.83;;;4.37;;
82938;SDS011;72714;52.744;4.900;2023-12-20T04:19:43;24.25;;;4.45;;
82938;SDS011;72714;52.744;4.900;2023-12-20T04:22:09;21.53;;;4.30;;
82938;SDS011;72714;52.744;4.900;2023-12-20T04:24:34;29.93;;;4.57;;
82938;SDS011;72714;52.744;4.900;2023-12-20T04:27:00;25.70;;;5.07;;
82938;SDS011;72714;52.744;4.900;2023-12-20T04:29:25;24.77;;;4.28;;
82938;SDS011;72714;52.744;4.900;2023-12-20T04:31:51;26.17;;;5.40;;
82938;SDS011;72714;52.744;4.900;2023-12-20T04:34:17;28.70;;;5.40;;
82938;SDS011;72714;52.744;4.900;2023-12-20T04:36:42;27.03;;;4.77;;
82938;SDS011;72714;52.744;4.900;2023-12-20T04:39:08;27.10;;;4.70;;
82938;SDS011;72714;52.744;4.900;2023-12-20T04:41:33;27.40;;;4.77;;
82938;SDS011;72714;52.744;4.900;2023-12-20T04:43:59;25.60;;;4.72;;
82938;SDS011;72714;52.744;4.900;2023-12-20T04:46:25;25.35;;;4.70;;
82938;SDS011;72714;52.744;4.900;2023-12-20T04:48:51;28.17;;;5.20;;
82938;SDS011;72714;52.744;4.900;2023-12-20T04:51:16;30.65;;;5.18;;
82938;SDS011;72714;52.744;4.900;2023-12-20T04:53:42;25.90;;;4.55;;
82938;SDS011;72714;52.744;4.900;2023-12-20T04:56:07;26.83;;;4.77;;
82938;SDS011;72714;52.744;4.900;2023-12-20T04:58:33;26.30;;;4.83;;
82938;SDS011;72714;52.744;4.900;2023-12-20T05:00:58;32.33;;;5.30;;
82938;SDS011;72714;52.744;4.900;2023-12-20T05:03:24;30.53;;;4.93;;
82938;SDS011;72714;52.744;4.900;2023-12-20T05:05:49;22.37;;;4.83;;
82938;SDS011;72714;52.744;4.900;2023-12-20T05:08:15;28.33;;;5.45;;
82938;SDS011;72714;52.744;4.900;2023-12-20T05:10:40;26.60;;;5.27;;
82938;SDS011;72714;52.744;4.900;2023-12-20T05:13:06;32.07;;;5.27;;
82938;SDS011;72714;52.744;4.900;2023-12-20T05:15:31;29.93;;;5.30;;
82938;SDS011;72714;52.744;4.900;2023-12-20T05:17:57;23.25;;;5.28;;
82938;SDS011;72714;52.744;4.900;2023-12-20T05:20:22;29.20;;;4.90;;
82938;SDS011;72714;52.744;4.900;2023-12-20T05:22:48;29.45;;;5.30;;
82938;SDS011;72714;52.744;4.900;2023-12-20T05:25:13;29.60;;;4.77;;
82938;SDS011;72714;52.744;4.900;2023-12-20T05:27:39;29.47;;;5.67;;
82938;SDS011;72714;52.744;4.900;2023-12-20T05:30:05;29.05;;;5.07;;
82938;SDS011;72714;52.744;4.900;2023-12-20T05:32:31;25.07;;;4.63;;
82938;SDS011;72714;52.744;4.900;2023-12-20T05:34:57;32.17;;;5.10;;
82938;SDS011;72714;52.744;4.900;2023-12-20T05:37:22;26.13;;;4.60;;
82938;SDS011;72714;52.744;4.900;2023-12-20T05:39:47;28.17;;;4.68;;
82938;SDS011;72714;52.744;4.900;2023-12-20T05:42:13;25.87;;;5.23;;
82938;SDS011;72714;52.744;4.900;2023-12-20T05:44:38;28.77;;;5.13;;
82938;SDS011;72714;52.744;4.900;2023-12-20T05:47:04;30.15;;;4.85;;
82938;SDS011;72714;52.744;4.900;2023-12-20T05:49:29;21.67;;;4.20;;
82938;SDS011;72714;52.744;4.900;2023-12-20T05:51:55;26.30;;;4.73;;
82938;SDS011;72714;52.744;4.900;2023-12-20T05:54:20;22.73;;;4.40;;
82938;SDS011;72714;52.744;4.900;2023-12-20T05:56:46;29.02;;;5.18;;
82938;SDS011;72714;52.744;4.900;2023-12-20T05:59:12;29.63;;;4.90;;
82938;SDS011;72714;52.744;4.900;2023-12-20T06:01:37;29.45;;;4.60;;
82938;SDS011;72714;52.744;4.900;2023-12-20T06:04:03;28.13;;;4.93;;
82938;SDS011;72714;52.744;4.900;2023-12-20T06:06:29;33.80;;;5.70;;
82938;SDS011;72714;52.744;4.900;2023-12-20T06:08:55;28.27;;;5.65;;
82938;SDS011;72714;52.744;4.900;2023-12-20T06:11:21;29.92;;;4.88;;
82938;SDS011;72714;52.744;4.900;2023-12-20T06:13:46;28.13;;;5.80;;
82938;SDS011;72714;52.744;4.900;2023-12-20T06:16:12;28.60;;;5.10;;
82938;SDS011;72714;52.744;4.900;2023-12-20T06:18:37;29.97;;;5.17;;
82938;SDS011;72714;52.744;4.900;2023-12-20T06:21:03;29.73;;;5.30;;
82938;SDS011;72714;52.744;4.900;2023-12-20T06:23:29;34.10;;;6.47;;
82938;SDS011;72714;52.744;4.900;2023-12-20T06:25:54;30.43;;;5.27;;
82938;SDS011;72714;52.744;4.900;2023-12-20T06:28:20;28.67;;;5.15;;
82938;SDS011;72714;52.744;4.900;2023-12-20T06:30:45;26.70;;;5.20;;
82938;SDS011;72714;52.744;4.900;2023-12-20T06:33:14;27.58;;;5.00;;
82938;SDS011;72714;52.744;4.900;2023-12-20T06:35:39;28.75;;;5.90;;
82938;SDS011;72714;52.744;4.900;2023-12-20T06:38:05;27.92;;;4.93;;
82938;SDS011;72714;52.744;4.900;2023-12-20T06:40:30;26.97;;;5.00;;
82938;SDS011;72714;52.744;4.900;2023-12-20T06:42:56;30.50;;;5.13;;
82938;SDS011;72714;52.744;4.900;2023-12-20T06:45:21;34.83;;;5.13;;
82938;SDS011;72714;52.744;4.900;2023-12-20T06:47:47;29.87;;;5.47;;
82938;SDS011;72714;52.744;4.900;2023-12-20T06:50:12;27.27;;;5.20;;
82938;SDS011;72714;52.744;4.900;2023-12-20T06:52:38;30.77;;;5.47;;
82938;SDS011;72714;52.744;4.900;2023-12-20T06:55:03;41.43;;;6.20;;
82938;SDS011;72714;52.744;4.900;2023-12-20T06:57:29;33.22;;;5.75;;
82938;SDS011;72714;52.744;4.900;2023-12-20T06:59:55;31.70;;;5.22;;
82938;SDS011;72714;52.744;4.900;2023-12-20T07:02:21;34.88;;;5.75;;
82938;SDS011;72714;52.744;4.900;2023-12-20T07:04:47;28.10;;;5.22;;
82938;SDS011;72714;52.744;4.900;2023-12-20T07:07:13;26.23;;;5.17;;
82938;SDS011;72714;52.744;4.900;2023-12-20T07:09:38;34.23;;;5.60;;
82938;SDS011;72714;52.744;4.900;2023-12-20T07:12:06;35.67;;;6.30;;
82938;SDS011;72714;52.744;4.900;2023-12-20T07:14:31;32.28;;;5.32;;
82938;SDS011;72714;52.744;4.900;2023-12-20T07:16:57;27.53;;;5.00;;
82938;SDS011;72714;52.744;4.900;2023-12-20T07:19:22;23.43;;;4.53;;
82938;SDS011;72714;52.744;4.900;2023-12-20T07:21:48;26.58;;;5.00;;
82938;SDS011;72714;52.744;4.900;2023-12-20T07:24:13;26.90;;;5.27;;
82938;SDS011;72714;52.744;4.900;2023-12-20T07:26:39;32.43;;;5.40;;
82938;SDS011;72714;52.744;4.900;2023-12-20T07:29:05;26.73;;;5.32;;
82938;SDS011;72714;52.744;4.900;2023-12-20T07:31:31;27.40;;;5.13;;
82938;SDS011;72714;52.744;4.900;2023-12-20T07:33:57;31.63;;;5.50;;
82938;SDS011;72714;52.744;4.900;2023-12-20T07:36:23;29.93;;;5.20;;
82938;SDS011;72714;52.744;4.900;2023-12-20T07:38:48;27.20;;;5.47;;
82938;SDS011;72714;52.744;4.900;2023-12-20T07:41:13;30.67;;;5.28;;
82938;SDS011;72714;52.744;4.900;2023-12-20T07:43:41;30.13;;;5.15;;
82938;SDS011;72714;52.744;4.900;2023-12-20T07:46:07;24.40;;;4.72;;
82938;SDS011;72714;52.744;4.900;2023-12-20T07:48:35;32.33;;;5.38;;
82938;SDS011;72714;52.744;4.900;2023-12-20T07:51:01;24.67;;;4.53;;
82938;SDS011;72714;52.744;4.900;2023-12-20T07:53:27;26.65;;;4.82;;
82938;SDS011;72714;52.744;4.900;2023-12-20T07:55:52;29.30;;;4.75;;
82938;SDS011;72714;52.744;4.900;2023-12-20T07:58:18;28.27;;;5.00;;
82938;SDS011;72714;52.744;4.900;2023-12-20T08:00:43;23.90;;;4.83;;
82938;SDS011;72714;52.744;4.900;2023-12-20T08:03:09;28.90;;;4.40;;
82938;SDS011;72714;52.744;4.900;2023-12-20T08:05:34;24.90;;;4.90;;
82938;SDS011;72714;52.744;4.900;2023-12-20T08:08:00;28.80;;;4.70;;
82938;SDS011;72714;52.744;4.900;2023-12-20T08:10:25;26.63;;;4.70;;
82938;SDS011;72714;52.744;4.900;2023-12-20T08:12:52;25.42;;;4.80;;
82938;SDS011;72714;52.744;4.900;2023-12-20T08:15:17;28.00;;;4.65;;
82938;SDS011;72714;52.744;4.900;2023-12-20T08:17:43;30.27;;;4.63;;
82938;SDS011;72714;52.744;4.900;2023-12-20T08:20:08;27.73;;;4.93;;
82938;SDS011;72714;52.744;4.900;2023-12-20T08:22:34;24.25;;;4.65;;
82938;SDS011;72714;52.744;4.900;2023-12-20T08:24:59;26.30;;;4.83;;
82938;SDS011;72714;52.744;4.900;2023-12-20T08:27:25;28.50;;;4.70;;
82938;SDS011;72714;52.744;4.900;2023-12-20T08:29:51;31.83;;;4.43;;
82938;SDS011;72714;52.744;4.900;2023-12-20T08:32:16;25.97;;;4.70;;
82938;SDS011;72714;52.744;4.900;2023-12-20T08:34:42;24.93;;;5.10;;
82938;SDS011;72714;52.744;4.900;2023-12-20T08:37:07;26.73;;;4.83;;
82938;SDS011;72714;52.744;4.900;2023-12-20T08:39:33;26.10;;;5.03;;
82938;SDS011;72714;52.744;4.900;2023-12-20T08:41:59;29.27;;;5.33;;
82938;SDS011;72714;52.744;4.900;2023-12-20T08:44:24;30.23;;;5.40;;
82938;SDS011;72714;52.744;4.900;2023-12-20T08:46:50;28.33;;;5.10;;
82938;SDS011;72714;52.744;4.900;2023-12-20T08:49:15;28.42;;;5.00;;
82938;SDS011;72714;52.744;4.900;2023-12-20T08:51:41;30.60;;;5.80;;
82938;SDS011;72714;52.744;4.900;2023-12-20T08:54:07;24.85;;;5.03;;
82938;SDS011;72714;52.744;4.900;2023-12-20T08:56:35;27.63;;;5.10;;
82938;SDS011;72714;52.744;4.900;2023-12-20T08:59:00;30.73;;;5.37;;
82938;SDS011;72714;52.744;4.900;2023-12-20T09:01:26;26.77;;;4.85;;
82938;SDS011;72714;52.744;4.900;2023-12-20T09:03:51;24.90;;;4.87;;
82938;SDS011;72714;52.744;4.900;2023-12-20T09:06:17;23.17;;;4.80;;
82938;SDS011;72714;52.744;4.900;2023-12-20T09:08:42;23.45;;;4.85;;
82938;SDS011;72714;52.744;4.900;2023-12-20T09:11:08;28.77;;;5.37;;
82938;SDS011;72714;52.744;4.900;2023-12-20T09:13:33;28.77;;;5.27;;
82938;SDS011;72714;52.744;4.900;2023-12-20T09:15:58;25.33;;;4.50;;
82938;SDS011;72714;52.744;4.900;2023-12-20T09:18:24;29.63;;;4.68;;
82938;SDS011;72714;52.744;4.900;2023-12-20T09:20:50;25.77;;;4.70;;
82938;SDS011;72714;52.744;4.900;2023-12-20T09:23:15;23.63;;;4.37;;
82938;SDS011;72714;52.744;4.900;2023-12-20T09:25:41;24.70;;;4.97;;
82938;SDS011;72714;52.744;4.900;2023-12-20T09:28:06;23.13;;;4.30;;
82938;SDS011;72714;52.744;4.900;2023-12-20T09:30:32;22.17;;;4.20;;
82938;SDS011;72714;52.744;4.900;2023-12-20T09:32:57;22.77;;;4.40;;
82938;SDS011;72714;52.744;4.900;2023-12-20T09:35:23;24.98;;;4.63;;
82938;SDS011;72714;52.744;4.900;2023-12-20T09:37:49;25.45;;;4.60;;
82938;SDS011;72714;52.744;4.900;2023-12-20T09:40:14;20.02;;;3.70;;
82938;SDS011;72714;52.744;4.900;2023-12-20T09:42:47;21.98;;;3.67;;
82938;SDS011;72714;52.744;4.900;2023-12-20T09:45:23;19.20;;;3.92;;
82938;SDS011;72714;52.744;4.900;2023-12-20T09:47:49;25.80;;;4.37;;
82938;SDS011;72714;52.744;4.900;2023-12-20T09:50:19;24.77;;;4.55;;
82938;SDS011;72714;52.744;4.900;2023-12-20T09:52:47;22.73;;;4.90;;
82938;SDS011;72714;52.744;4.900;2023-12-20T09:55:15;24.60;;;4.97;;
82938;SDS011;72714;52.744;4.900;2023-12-20T09:57:42;26.23;;;4.90;;
82938;SDS011;72714;52.744;4.900;2023-12-20T10:00:08;24.38;;;4.38;;
82938;SDS011;72714;52.744;4.900;2023-12-20T10:02:38;24.65;;;4.75;;
82938;SDS011;72714;52.744;4.900;2023-12-20T10:05:06;22.05;;;4.65;;
82938;SDS011;72714;52.744;4.900;2023-12-20T10:07:34;27.67;;;4.68;;
82938;SDS011;72714;52.744;4.900;2023-12-20T10:10:00;25.25;;;5.00;;
82938;SDS011;72714;52.744;4.900;2023-12-20T10:12:27;24.83;;;4.38;;
82938;SDS011;72714;52.744;4.900;2023-12-20T10:14:53;20.73;;;4.80;;
82938;SDS011;72714;52.744;4.900;2023-12-20T10:17:18;28.60;;;4.70;;
82938;SDS011;72714;52.744;4.900;2023-12-20T10:19:43;25.60;;;4.57;;
82938;SDS011;72714;52.744;4.900;2023-12-20T10:22:09;25.17;;;4.93;;
82938;SDS011;72714;52.744;4.900;2023-12-20T10:24:35;25.47;;;4.90;;
82938;SDS011;72714;52.744;4.900;2023-12-20T10:27:01;22.10;;;4.20;;
82938;SDS011;72714;52.744;4.900;2023-12-20T10:29:33;24.30;;;4.13;;
82938;SDS011;72714;52.744;4.900;2023-12-20T10:32:02;21.92;;;4.30;;
82938;SDS011;72714;52.744;4.900;2023-12-20T10:34:49;22.92;;;4.65;;
82938;SDS011;72714;52.744;4.900;2023-12-20T10:37:16;23.23;;;4.50;;
82938;SDS011;72714;52.744;4.900;2023-12-20T10:39:42;22.55;;;4.53;;
82938;SDS011;72714;52.744;4.900;2023-12-20T10:42:08;22.10;;;4.60;;
82938;SDS011;72714;52.744;4.900;2023-12-20T10:44:35;22.60;;;4.33;;
82938;SDS011;72714;52.744;4.900;2023-12-20T10:47:01;22.40;;;4.37;;
82938;SDS011;72714;52.744;4.900;2023-12-20T10:49:27;24.23;;;4.43;;
82938;SDS011;72714;52.744;4.900;2023-12-20T10:51:54;22.25;;;4.13;;
82938;SDS011;72714;52.744;4.900;2023-12-20T10:54:19;25.67;;;4.37;;
82938;SDS011;72714;52.744;4.900;2023-12-20T10:56:45;22.80;;;4.20;;
82938;SDS011;72714;52.744;4.900;2023-12-20T10:59:11;20.93;;;4.13;;
82938;SDS011;72714;52.744;4.900;2023-12-20T11:01:37;21.33;;;3.70;;
82938;SDS011;72714;52.744;4.900;2023-12-20T11:04:03;21.02;;;4.00;;
82938;SDS011;72714;52.744;4.900;2023-12-20T11:06:51;20.20;;;3.80;;
82938;SDS011;72714;52.744;4.900;2023-12-20T11:09:26;22.08;;;3.75;;
82938;SDS011;72714;52.744;4.900;2023-12-20T11:12:02;21.38;;;4.22;;
82938;SDS011;72714;52.744;4.900;2023-12-20T11:14:38;21.40;;;4.20;;
82938;SDS011;72714;52.744;4.900;2023-12-20T11:17:22;19.42;;;4.72;;
82938;SDS011;72714;52.744;4.900;2023-12-20T11:22:17;21.70;;;4.68;;
82938;SDS011;72714;52.744;4.900;2023-12-20T11:24:44;22.87;;;4.93;;
82938;SDS011;72714;52.744;4.900;2023-12-20T11:27:12;22.23;;;4.80;;
82938;SDS011;72714;52.744;4.900;2023-12-20T11:29:38;21.02;;;4.95;;
82938;SDS011;72714;52.744;4.900;2023-12-20T11:34:54;21.40;;;4.00;;
82938;SDS011;72714;52.744;4.900;2023-12-20T11:37:40;22.25;;;3.97;;
82938;SDS011;72714;52.744;4.900;2023-12-20T11:40:13;21.30;;;4.43;;
82938;SDS011;72714;52.744;4.900;2023-12-20T11:42:40;20.10;;;3.90;;
82938;SDS011;72714;52.744;4.900;2023-12-20T11:45:10;23.98;;;4.97;;
82938;SDS011;72714;52.744;4.900;2023-12-20T11:47:36;18.35;;;3.75;;
82938;SDS011;72714;52.744;4.900;2023-12-20T11:50:01;20.38;;;3.97;;
82938;SDS011;72714;52.744;4.900;2023-12-20T11:52:29;24.77;;;4.43;;
82938;SDS011;72714;52.744;4.900;2023-12-20T11:54:56;21.83;;;4.05;;
82938;SDS011;72714;52.744;4.900;2023-12-20T11:57:22;18.40;;;3.63;;
82938;SDS011;72714;52.744;4.900;2023-12-20T11:59:48;23.33;;;4.20;;
82938;SDS011;72714;52.744;4.900;2023-12-20T12:02:13;19.88;;;3.92;;
82938;SDS011;72714;52.744;4.900;2023-12-20T12:04:41;22.15;;;4.07;;
82938;SDS011;72714;52.744;4.900;2023-12-20T12:07:07;19.30;;;4.05;;
82938;SDS011;72714;52.744;4.900;2023-12-20T12:09:32;18.00;;;3.80;;
82938;SDS011;72714;52.744;4.900;2023-12-20T12:11:58;23.17;;;4.00;;
82938;SDS011;72714;52.744;4.900;2023-12-20T12:14:24;23.07;;;4.03;;
82938;SDS011;72714;52.744;4.900;2023-12-20T12:16:49;20.80;;;4.07;;
82938;SDS011;72714;52.744;4.900;2023-12-20T12:19:22;20.97;;;3.50;;
82938;SDS011;72714;52.744;4.900;2023-12-20T12:21:49;20.37;;;3.90;;
82938;SDS011;72714;52.744;4.900;2023-12-20T12:24:15;23.33;;;4.80;;
82938;SDS011;72714;52.744;4.900;2023-12-20T12:26:41;24.08;;;4.13;;
82938;SDS011;72714;52.744;4.900;2023-12-20T12:29:09;22.57;;;4.17;;
82938;SDS011;72714;52.744;4.900;2023-12-20T12:31:35;22.02;;;3.97;;
82938;SDS011;72714;52.744;4.900;2023-12-20T12:34:01;16.10;;;3.83;;
82938;SDS011;72714;52.744;4.900;2023-12-20T12:36:27;22.85;;;4.13;;
82938;SDS011;72714;52.744;4.900;2023-12-20T12:38:53;20.52;;;3.70;;
82938;SDS011;72714;52.744;4.900;2023-12-20T12:41:21;21.23;;;3.60;;
82938;SDS011;72714;52.744;4.900;2023-12-20T12:43:47;21.63;;;4.20;;
82938;SDS011;72714;52.744;4.900;2023-12-20T12:46:12;20.70;;;4.07;;
82938;SDS011;72714;52.744;4.900;2023-12-20T12:48:38;22.33;;;5.32;;
82938;SDS011;72714;52.744;4.900;2023-12-20T12:51:04;26.10;;;4.30;;
82938;SDS011;72714;52.744;4.900;2023-12-20T12:53:29;23.83;;;3.97;;
82938;SDS011;72714;52.744;4.900;2023-12-20T12:55:55;21.83;;;3.63;;
82938;SDS011;72714;52.744;4.900;2023-12-20T12:58:21;23.63;;;4.13;;
82938;SDS011;72714;52.744;4.900;2023-12-20T13:00:47;25.35;;;3.90;;
82938;SDS011;72714;52.744;4.900;2023-12-20T13:03:12;21.30;;;3.73;;
82938;SDS011;72714;52.744;4.900;2023-12-20T13:05:38;21.73;;;3.90;;
82938;SDS011;72714;52.744;4.900;2023-12-20T13:08:03;23.17;;;4.22;;
82938;SDS011;72714;52.744;4.900;2023-12-20T13:10:30;19.93;;;3.80;;
82938;SDS011;72714;52.744;4.900;2023-12-20T13:12:55;24.63;;;3.90;;
82938;SDS011;72714;52.744;4.900;2023-12-20T13:15:21;22.63;;;4.32;;
82938;SDS011;72714;52.744;4.900;2023-12-20T13:17:46;19.67;;;3.28;;
82938;SDS011;72714;52.744;4.900;2023-12-20T13:20:12;19.63;;;3.70;;
82938;SDS011;72714;52.744;4.900;2023-12-20T13:22:37;27.47;;;4.03;;
82938;SDS011;72714;52.744;4.900;2023-12-20T13:25:03;20.70;;;4.00;;
82938;SDS011;72714;52.744;4.900;2023-12-20T13:27:28;18.65;;;3.50;;
82938;SDS011;72714;52.744;4.900;2023-12-20T13:29:54;20.27;;;3.70;;
82938;SDS011;72714;52.744;4.900;2023-12-20T13:32:19;19.70;;;3.50;;
82938;SDS011;72714;52.744;4.900;2023-12-20T13:34:45;23.15;;;3.90;;
82938;SDS011;72714;52.744;4.900;2023-12-20T13:37:11;21.88;;;3.92;;
82938;SDS011;72714;52.744;4.900;2023-12-20T13:39:36;21.53;;;3.67;;
82938;SDS011;72714;52.744;4.900;2023-12-20T13:42:02;16.77;;;3.13;;
82938;SDS011;72714;52.744;4.900;2023-12-20T13:44:27;22.37;;;3.83;;
82938;SDS011;72714;52.744;4.900;2023-12-20T13:46:52;19.42;;;3.70;;
82938;SDS011;72714;52.744;4.900;2023-12-20T13:49:18;19.70;;;3.70;;
82938;SDS011;72714;52.744;4.900;2023-12-20T13:51:43;23.60;;;4.00;;
82938;SDS011;72714;52.744;4.900;2023-12-20T13:54:09;18.23;;;4.00;;
82938;SDS011;72714;52.744;4.900;2023-12-20T13:56:36;18.38;;;3.72;;
82938;SDS011;72714;52.744;4.900;2023-12-20T13:59:01;22.93;;;3.97;;
82938;SDS011;72714;52.744;4.900;2023-12-20T14:01:27;22.17;;;4.30;;
82938;SDS011;72714;52.744;4.900;2023-12-20T14:03:52;21.03;;;4.00;;
82938;SDS011;72714;52.744;4.900;2023-12-20T14:06:17;21.80;;;4.03;;
82938;SDS011;72714;52.744;4.900;2023-12-20T14:08:43;25.20;;;4.60;;
82938;SDS011;72714;52.744;4.900;2023-12-20T14:11:09;21.47;;;3.93;;
82938;SDS011;72714;52.744;4.900;2023-12-20T14:13:35;24.13;;;4.30;;
82938;SDS011;72714;52.744;4.900;2023-12-20T14:16:00;21.50;;;3.80;;
82938;SDS011;72714;52.744;4.900;2023-12-20T14:18:27;21.55;;;3.78;;
82938;SDS011;72714;52.744;4.900;2023-12-20T14:20:52;22.60;;;4.00;;
82938;SDS011;72714;52.744;4.900;2023-12-20T14:23:19;28.02;;;4.97;;
82938;SDS011;72714;52.744;4.900;2023-12-20T14:25:44;22.37;;;3.97;;
82938;SDS011;72714;52.744;4.900;2023-12-20T14:28:10;25.80;;;4.07;;
82938;SDS011;72714;52.744;4.900;2023-12-20T14:30:37;19.08;;;3.35;;
82938;SDS011;72714;52.744;4.900;2023-12-20T14:33:03;20.85;;;3.72;;